Time;durP1;ratioP1;P1;durP2;ratioP2;P2;SDS_P1;SDS_P2;PMS_P1;PMS_P2;Temp;Humidity;BMP_temperature;BMP_pressure;BME280_temperature;BME280_humidity;BME280_pressure;Samples;Min_cycle;Max_cycle;Signal;HPM_P1;HPM_P2
2021/05/20 00:01:32;;;;;;;11.55;9.73;;;;;;;15.91;47.88;101224.75;5030253;28;20041;-81
2021/05/20 00:03:58;;;;;;;13.32;10.07;;;;;;;15.95;47.56;101226.16;5011792;28;20043;-81
2021/05/20 00:06:25;;;;;;;15.30;10.52;;;;;;;15.87;47.79;101219.81;5033464;28;20045;-80
2021/05/20 00:08:50;;;;;;;12.10;10.75;;;;;;;16.12;47.43;101221.66;5014722;28;20029;-80
2021/05/20 00:11:15;;;;;;;11.38;10.15;;;;;;;15.97;47.54;101228.69;5032592;28;20040;-80
2021/05/20 00:13:41;;;;;;;12.07;10.70;;;;;;;15.97;47.54;101234.97;5031245;28;20109;-80
2021/05/20 00:16:06;;;;;;;14.13;10.77;;;;;;;15.96;47.57;101227.00;5030696;28;20033;-80
2021/05/20 00:18:32;;;;;;;11.32;10.13;;;;;;;16.13;47.16;101227.94;5034093;28;20061;-81
2021/05/20 00:20:57;;;;;;;13.23;11.32;;;;;;;16.09;47.21;101232.84;5017093;28;20025;-81
2021/05/20 00:23:23;;;;;;;12.68;10.90;;;;;;;16.24;46.69;101236.66;5032818;28;20033;-80
2021/05/20 00:25:49;;;;;;;16.65;10.63;;;;;;;16.24;46.20;101228.53;5013336;28;20049;-80
2021/05/20 00:28:15;;;;;;;12.13;10.90;;;;;;;16.23;46.53;101240.41;5031000;28;20128;-81
2021/05/20 00:30:40;;;;;;;11.30;10.15;;;;;;;16.19;46.67;101246.31;5012671;28;20136;-81
2021/05/20 00:33:08;;;;;;;11.55;10.25;;;;;;;16.23;46.49;101250.41;5016237;28;20026;-81
2021/05/20 00:35:34;;;;;;;12.90;10.55;;;;;;;15.94;47.06;101239.88;5032867;28;20037;-81
2021/05/20 00:37:59;;;;;;;12.50;10.70;;;;;;;16.04;47.04;101252.34;5014056;28;20037;-81
2021/05/20 00:40:25;;;;;;;13.00;10.25;;;;;;;16.15;46.87;101242.22;5031740;28;20033;-81
2021/05/20 00:42:50;;;;;;;15.05;11.95;;;;;;;15.92;47.76;101231.91;5031040;28;20042;-81
2021/05/20 00:45:16;;;;;;;13.13;11.52;;;;;;;15.80;47.83;101238.59;5012920;28;20445;-81
2021/05/20 00:47:41;;;;;;;15.70;12.27;;;;;;;15.83;47.94;101249.13;5030037;28;20095;-81
2021/05/20 00:50:10;;;;;;;13.27;11.88;;;;;;;15.57;48.58;101247.16;5029570;28;20062;-81
2021/05/20 00:52:37;;;;;;;12.95;11.57;;;;;;;15.84;48.27;101250.81;5036504;28;20075;-81
2021/05/20 00:55:05;;;;;;;16.52;12.02;;;;;;;15.99;47.25;101249.22;5015208;28;20033;-81
2021/05/20 00:57:34;;;;;;;13.38;11.98;;;;;;;15.96;47.60;101248.72;5014129;28;20036;-81
2021/05/20 01:00:15;;;;;;;14.23;12.73;;;;;;;15.93;47.67;101249.88;5013291;28;20032;-81
2021/05/20 01:02:41;;;;;;;15.68;11.60;;;;;;;16.08;47.49;101253.72;5033356;28;20053;-81
2021/05/20 01:05:12;;;;;;;13.35;11.95;;;;;;;16.02;47.59;101251.63;5032378;28;20501;-81
2021/05/20 01:07:38;;;;;;;14.25;11.05;;;;;;;16.07;47.34;101245.75;5031744;28;20037;-81
2021/05/20 01:10:06;;;;;;;11.27;10.18;;;;;;;16.12;47.04;101248.81;5012729;28;20056;-82
2021/05/20 01:12:32;;;;;;;11.85;10.65;;;;;;;16.09;47.17;101249.97;5012360;28;20388;-80
2021/05/20 01:14:57;;;;;;;12.40;10.70;;;;;;;15.85;47.78;101257.94;5029733;28;20037;-81
2021/05/20 01:17:25;;;;;;;12.82;11.45;;;;;;;15.81;47.88;101253.84;5029982;28;20051;-81
2021/05/20 01:19:51;;;;;;;12.50;11.15;;;;;;;16.08;47.16;101253.72;5029608;28;20109;-81
2021/05/20 01:22:16;;;;;;;13.98;12.57;;;;;;;16.10;47.05;101259.00;5011284;28;20390;-81
2021/05/20 01:24:43;;;;;;;14.02;11.93;;;;;;;16.05;47.22;101255.88;5032924;28;20025;-81
2021/05/20 01:27:10;;;;;;;11.63;10.43;;;;;;;16.14;46.88;101251.38;5015350;28;20403;-81
2021/05/20 01:29:40;;;;;;;12.15;10.95;;;;;;;16.31;46.61;101253.16;5034226;28;20029;-81
2021/05/20 01:32:06;;;;;;;11.98;10.38;;;;;;;16.55;46.28;101253.28;5018851;28;20037;-81
2021/05/20 01:34:32;;;;;;;11.40;9.77;;;;;;;16.35;45.85;101249.13;5035273;28;20456;-81
2021/05/20 01:36:59;;;;;;;13.15;11.57;;;;;;;16.34;46.66;101257.41;5016625;28;20029;-80
2021/05/20 01:39:25;;;;;;;13.38;11.95;;;;;;;16.58;45.94;101254.00;5034338;28;20147;-79
2021/05/20 01:41:50;;;;;;;12.85;11.55;;;;;;;16.37;46.43;101263.38;5033397;28;20516;-80
2021/05/20 01:44:16;;;;;;;13.38;10.52;;;;;;;16.32;46.50;101263.03;5014959;28;20057;-80
2021/05/20 01:46:41;;;;;;;11.80;10.15;;;;;;;15.88;47.64;101267.63;5015007;28;20057;-80
2021/05/20 01:49:10;;;;;;;11.00;9.80;;;;;;;15.92;47.31;101263.59;5032525;28;20374;-79
2021/05/20 01:51:36;;;;;;;11.13;9.70;;;;;;;15.87;47.23;101265.94;5014016;28;20060;-80
2021/05/20 01:54:01;;;;;;;10.00;8.93;;;;;;;16.11;46.77;101257.13;5031635;28;20108;-80
2021/05/20 01:56:27;;;;;;;9.43;7.65;;;;;;;16.51;45.65;101254.63;5013247;28;20040;-81
2021/05/20 01:58:53;;;;;;;9.75;8.38;;;;;;;15.80;46.89;101265.72;5031740;28;20528;-81
2021/05/20 02:01:19;;;;;;;9.88;8.13;;;;;;;15.71;47.14;101263.94;5034268;28;20105;-81
2021/05/20 02:03:45;;;;;;;9.38;8.38;;;;;;;15.99;46.94;101265.50;5040751;28;20093;-82
2021/05/20 02:06:11;;;;;;;8.98;8.07;;;;;;;15.83;47.11;101259.97;5016661;28;20064;-81
2021/05/20 02:08:38;;;;;;;7.93;7.13;;;;;;;15.95;46.59;101258.72;5016356;28;20029;-81
2021/05/20 02:11:07;;;;;;;9.45;7.50;;;;;;;15.73;46.90;101260.06;5015522;28;20030;-81
2021/05/20 02:13:33;;;;;;;7.88;7.07;;;;;;;15.66;47.79;101267.06;5014649;28;20037;-81
2021/05/20 02:15:58;;;;;;;6.90;6.20;;;;;;;15.68;47.78;101261.53;5013778;28;20021;-81
2021/05/20 02:18:24;;;;;;;7.78;6.55;;;;;;;15.33;47.70;101266.75;5031619;28;20168;-81
2021/05/20 02:20:49;;;;;;;8.52;6.13;;;;;;;15.27;48.84;101263.81;5031508;28;20030;-81
2021/05/20 02:23:16;;;;;;;6.68;6.07;;;;;;;15.38;48.44;101256.31;5013290;28;20401;-81
2021/05/20 02:25:42;;;;;;;7.05;6.32;;;;;;;15.79;47.59;101274.84;5012889;28;20033;-81
2021/05/20 02:28:08;;;;;;;7.55;6.55;;;;;;;15.52;48.03;101262.19;5012717;28;20025;-81
2021/05/20 02:30:34;;;;;;;7.00;6.30;;;;;;;15.81;47.23;101262.81;5020000;28;20037;-82
2021/05/20 02:32:59;;;;;;;7.40;6.13;;;;;;;15.85;47.45;101258.81;5036671;28;20025;-81
2021/05/20 02:35:25;;;;;;;6.38;5.78;;;;;;;15.61;48.21;101258.53;5017307;28;20029;-81
2021/05/20 02:37:51;;;;;;;8.70;5.93;;;;;;;15.49;47.97;101260.66;5016343;28;20034;-81
2021/05/20 02:40:17;;;;;;;9.43;6.38;;;;;;;15.72;47.51;101268.34;5015493;28;20036;-82
2021/05/20 02:42:43;;;;;;;8.05;6.40;;;;;;;15.41;48.48;101266.00;5014234;28;20036;-81
2021/05/20 02:45:14;;;;;;;7.32;6.28;;;;;;;15.16;49.25;101271.16;5013605;28;20120;-81
2021/05/20 02:47:39;;;;;;;7.40;6.35;;;;;;;15.55;48.39;101260.03;5032032;28;20396;-81
2021/05/20 02:50:05;;;;;;;6.90;6.18;;;;;;;15.59;48.59;101260.56;5031695;28;20025;-81
2021/05/20 02:52:31;;;;;;;7.18;6.18;;;;;;;15.65;48.46;101269.94;5031460;28;20052;-81
2021/05/20 02:54:57;;;;;;;7.45;6.75;;;;;;;15.42;48.62;101259.56;5014714;28;20082;-82
2021/05/20 02:57:22;;;;;;;6.75;5.70;;;;;;;15.83;47.89;101258.09;5034734;28;20033;-81
2021/05/20 02:59:48;;;;;;;7.45;6.30;;;;;;;15.68;48.27;101256.97;5016004;28;20044;-81
2021/05/20 03:02:13;;;;;;;7.03;6.30;;;;;;;15.62;48.48;101261.13;5033393;28;20123;-81
2021/05/20 03:04:38;;;;;;;10.43;6.90;;;;;;;15.67;48.29;101257.94;5034470;28;20025;-82
2021/05/20 03:07:06;;;;;;;7.57;6.88;;;;;;;15.96;47.50;101262.28;5033594;28;20140;-80
2021/05/20 03:09:32;;;;;;;7.53;6.80;;;;;;;15.95;47.77;101258.72;5031772;28;20037;-80
2021/05/20 03:11:59;;;;;;;9.73;6.57;;;;;;;15.80;47.83;101260.28;5013347;28;20041;-80
2021/05/20 03:14:25;;;;;;;7.45;6.53;;;;;;;15.96;47.94;101259.56;5031971;28;20485;-80
2021/05/20 03:16:51;;;;;;;8.70;6.38;;;;;;;15.83;48.03;101263.53;5013713;28;20033;-80
2021/05/20 03:19:17;;;;;;;8.77;6.97;;;;;;;15.25;49.13;101260.41;5031664;28;20035;-80
2021/05/20 03:21:42;;;;;;;7.43;6.63;;;;;;;15.10;49.84;101265.50;5031139;28;20040;-80
2021/05/20 03:24:08;;;;;;;7.28;6.50;;;;;;;15.51;48.73;101261.34;5034373;28;20033;-80
2021/05/20 03:26:33;;;;;;;10.88;8.02;;;;;;;15.48;49.50;101264.34;5033571;28;20041;-80
2021/05/20 03:28:59;;;;;;;9.52;7.68;;;;;;;15.43;49.38;101264.00;5032543;28;20049;-80
2021/05/20 03:31:25;;;;;;;7.50;6.80;;;;;;;16.00;48.08;101252.78;5013637;28;20025;-80
2021/05/20 03:33:50;;;;;;;11.57;7.03;;;;;;;15.54;49.10;101257.47;5013671;28;20025;-81
2021/05/20 03:36:16;;;;;;;8.25;6.55;;;;;;;15.63;49.24;101257.38;5031066;28;20481;-81
2021/05/20 03:38:41;;;;;;;7.22;6.53;;;;;;;15.51;49.14;101255.91;5031684;28;20037;-81
2021/05/20 03:41:07;;;;;;;9.60;7.57;;;;;;;15.63;49.14;101251.13;5020339;28;20038;-81
2021/05/20 03:43:36;;;;;;;6.75;6.10;;;;;;;16.16;47.84;101252.94;5033974;28;20036;-81
2021/05/20 03:46:02;;;;;;;8.18;6.55;;;;;;;16.24;47.43;101260.25;5015119;28;20454;-81
2021/05/20 03:48:29;;;;;;;9.60;6.90;;;;;;;16.17;47.88;101261.91;5015064;28;20478;-82
2021/05/20 03:50:55;;;;;;;7.75;5.80;;;;;;;16.17;47.59;101261.91;5031765;28;20473;-81
2021/05/20 03:53:20;;;;;;;7.57;6.60;;;;;;;15.70;48.73;101268.50;5033252;28;20022;-81
2021/05/20 03:55:48;;;;;;;11.65;7.20;;;;;;;15.90;48.34;101271.03;5016042;28;20083;-81
2021/05/20 03:58:13;;;;;;;7.72;5.93;;;;;;;15.78;48.71;101273.13;5032748;28;20029;-80
2021/05/20 04:00:38;;;;;;;6.88;5.72;;;;;;;15.69;49.05;101271.38;5032251;28;20040;-80
2021/05/20 04:03:04;;;;;;;9.20;6.20;;;;;;;15.41;49.32;101266.00;5031846;28;20049;-80
2021/05/20 04:05:29;;;;;;;7.22;5.70;;;;;;;15.85;48.14;101277.78;5030645;28;20557;-80
2021/05/20 04:07:54;;;;;;;7.22;5.20;;;;;;;16.00;47.73;101267.19;5012152;28;20028;-80
2021/05/20 04:10:20;;;;;;;7.10;5.28;;;;;;;16.02;47.66;101265.19;5011982;28;20549;-80
2021/05/20 04:12:45;;;;;;;9.00;4.65;;;;;;;16.11;47.14;101276.13;5029557;28;20033;-80
2021/05/20 04:15:11;;;;;;;9.52;4.85;;;;;;;15.98;47.39;101263.81;5035943;28;20030;-81
2021/05/20 04:17:36;;;;;;;7.47;4.78;;;;;;;15.75;47.72;101273.47;5033459;28;20045;-81
2021/05/20 04:20:02;;;;;;;6.38;3.80;;;;;;;15.67;47.69;101266.09;5032679;28;20033;-81
2021/05/20 04:22:27;;;;;;;6.10;4.40;;;;;;;15.84;47.38;101267.09;5015641;28;20038;-81
2021/05/20 04:24:53;;;;;;;7.38;4.07;;;;;;;15.90;47.15;101266.47;5015311;28;20057;-80
2021/05/20 04:27:18;;;;;;;5.15;3.85;;;;;;;15.58;48.00;101266.97;5032836;28;20033;-80
2021/05/20 04:29:43;;;;;;;9.80;3.50;;;;;;;15.80;47.81;101266.56;5031566;28;20089;-80
2021/05/20 04:32:09;;;;;;;9.30;3.40;;;;;;;15.74;47.38;101274.47;5030810;28;20477;-80
2021/05/20 04:34:35;;;;;;;6.47;3.85;;;;;;;15.62;47.59;101266.53;5012288;28;20597;-80
2021/05/20 04:37:08;;;;;;;9.65;3.55;;;;;;;16.09;46.71;101263.53;5030161;28;20076;-81
2021/05/20 04:39:34;;;;;;;6.07;3.75;;;;;;;15.92;47.23;101274.47;5029314;28;20037;-81
2021/05/20 04:42:01;;;;;;;10.23;4.43;;;;;;;15.72;47.58;101274.63;5029195;28;20036;-81
2021/05/20 04:44:27;;;;;;;6.72;3.47;;;;;;;16.00;46.99;101267.19;5031693;28;20121;-81
2021/05/20 04:46:52;;;;;;;4.63;3.13;;;;;;;15.96;47.23;101279.38;5034745;28;20081;-80
2021/05/20 04:49:18;;;;;;;8.38;3.70;;;;;;;15.93;47.33;101274.28;5034065;28;20045;-81
2021/05/20 04:51:44;;;;;;;6.10;3.70;;;;;;;15.46;47.46;101282.66;5033288;28;20108;-80
2021/05/20 04:54:09;;;;;;;7.18;3.30;;;;;;;15.50;47.92;101272.34;5031622;28;20036;-80
2021/05/20 04:56:35;;;;;;;6.38;2.83;;;;;;;15.57;48.08;101266.13;5030031;28;20033;-80
2021/05/20 04:59:01;;;;;;;9.23;3.72;;;;;;;15.39;48.33;101270.72;5030124;28;20037;-80
2021/05/20 05:01:27;;;;;;;12.27;2.97;;;;;;;15.53;48.03;101277.47;5010789;28;20032;-81
2021/05/20 05:03:52;;;;;;;7.05;3.38;;;;;;;15.81;46.76;101270.97;5011332;28;20029;-81
2021/05/20 05:06:17;;;;;;;10.82;3.50;;;;;;;15.76;47.57;101269.72;5032591;28;20139;-81
2021/05/20 05:08:43;;;;;;;13.07;3.15;;;;;;;15.84;47.42;101284.22;5032320;28;20041;-81
2021/05/20 05:11:08;;;;;;;5.43;2.95;;;;;;;16.08;46.40;101267.28;5032239;28;20033;-80
2021/05/20 05:13:36;;;;;;;5.38;2.38;;;;;;;15.63;46.54;101276.38;5040090;28;20632;-81
2021/05/20 05:16:01;;;;;;;6.97;2.45;;;;;;;16.16;45.40;101274.63;5043986;28;20044;-81
2021/05/20 05:18:27;;;;;;;8.10;2.58;;;;;;;15.70;46.02;101275.78;5036696;28;20045;-81
2021/05/20 05:20:52;;;;;;;4.80;2.10;;;;;;;15.87;46.10;101269.50;5036488;28;20609;-80
2021/05/20 05:23:17;;;;;;;10.05;2.85;;;;;;;15.67;46.64;101284.19;5034857;28;20052;-80
2021/05/20 05:25:43;;;;;;;5.78;2.47;;;;;;;15.72;46.95;101285.47;5016592;28;20029;-80
2021/05/20 05:28:08;;;;;;;6.03;2.80;;;;;;;16.17;45.98;101284.47;5015427;28;20535;-80
2021/05/20 05:30:34;;;;;;;5.75;2.35;;;;;;;15.83;46.99;101296.06;5015218;28;20459;-81
2021/05/20 05:33:00;;;;;;;4.82;2.50;;;;;;;15.67;47.29;101289.59;5032671;28;20025;-80
2021/05/20 05:35:25;;;;;;;6.60;2.53;;;;;;;15.55;47.67;101292.56;5031274;28;20116;-79
2021/05/20 05:37:51;;;;;;;8.52;2.53;;;;;;;14.87;48.90;101305.69;5031629;28;20708;-79
2021/05/20 05:40:17;;;;;;;6.95;2.50;;;;;;;15.35;48.00;101299.13;5032838;28;20397;-79
2021/05/20 05:42:43;;;;;;;12.63;3.47;;;;;;;14.90;49.33;101306.22;5016297;28;20476;-79
2021/05/20 05:45:09;;;;;;;5.05;2.20;;;;;;;15.20;48.46;101301.50;5015222;28;20470;-79
2021/05/20 05:47:35;;;;;;;9.55;2.90;;;;;;;15.41;47.59;101303.94;5031853;28;20037;-79
2021/05/20 05:50:06;;;;;;;4.25;3.35;;;;;;;15.78;47.17;101311.97;5013744;28;20028;-79
2021/05/20 05:52:32;;;;;;;7.13;2.53;;;;;;;16.16;45.58;101298.19;5032790;28;20029;-79
2021/05/20 05:54:57;;;;;;;6.63;2.75;;;;;;;16.25;45.24;101303.53;5013617;28;20528;-78
2021/05/20 05:57:23;;;;;;;8.30;2.53;;;;;;;16.23;45.16;101296.56;5033004;28;20129;-78
2021/05/20 05:59:51;;;;;;;8.57;2.65;;;;;;;16.19;45.07;101300.56;5026379;28;20468;-79
2021/05/20 06:02:24;;;;;;;16.83;2.70;;;;;;;15.80;45.67;101300.97;5031129;28;20099;-79
2021/05/20 06:04:53;;;;;;;7.75;2.63;;;;;;;16.01;45.18;101306.91;5021508;28;20052;-80
2021/05/20 06:07:18;;;;;;;9.57;2.50;;;;;;;16.30;44.86;101300.31;5012308;28;20123;-80
2021/05/20 06:09:44;;;;;;;6.57;2.17;;;;;;;16.46;44.27;101305.00;5029412;28;20557;-80
2021/05/20 06:12:10;;;;;;;4.18;2.40;;;;;;;16.22;45.01;101303.84;5010748;28;20049;-80
2021/05/20 06:14:39;;;;;;;9.48;2.10;;;;;;;16.45;44.41;101306.88;5024566;28;20038;-79
2021/05/20 06:17:08;;;;;;;10.40;2.67;;;;;;;16.39;44.94;101296.66;5012303;28;20428;-79
2021/05/20 06:19:34;;;;;;;5.10;2.30;;;;;;;16.27;45.01;101300.66;5013050;28;20366;-80
2021/05/20 06:22:00;;;;;;;4.63;2.13;;;;;;;16.11;45.35;101303.25;5031415;28;20035;-80
2021/05/20 06:24:30;;;;;;;8.50;2.42;;;;;;;16.15;45.48;101302.75;5006008;28;20032;-80
2021/05/20 06:26:58;;;;;;;5.97;2.47;;;;;;;16.36;44.33;101317.84;5029883;28;20116;-80
2021/05/20 06:29:24;;;;;;;4.68;1.92;;;;;;;15.92;44.92;101302.44;5010692;28;20633;-79
2021/05/20 06:31:57;;;;;;;5.30;2.13;;;;;;;16.38;44.28;101288.69;5029532;28;20132;-80
2021/05/20 06:34:23;;;;;;;9.68;2.80;;;;;;;16.69;43.48;101305.31;5009522;28;20044;-80
2021/05/20 06:36:49;;;;;;;6.90;2.30;;;;;;;16.21;44.20;101299.41;5011327;28;20021;-80
2021/05/20 06:39:14;;;;;;;4.30;1.80;;;;;;;16.28;44.28;101302.34;5010980;28;20036;-80
2021/05/20 06:41:40;;;;;;;4.97;1.77;;;;;;;16.12;44.18;101324.78;5029085;28;20807;-80
2021/05/20 06:44:05;;;;;;;9.68;2.28;;;;;;;16.03;44.77;101301.31;5009904;28;20026;-80
2021/05/20 06:46:31;;;;;;;10.80;2.03;;;;;;;15.73;43.79;101308.00;5009724;28;20477;-79
2021/05/20 06:48:56;;;;;;;4.60;1.77;;;;;;;16.16;42.60;101304.50;5027724;28;20030;-80
2021/05/20 06:51:22;;;;;;;7.95;1.95;;;;;;;16.48;41.55;101292.13;5009842;28;20401;-80
2021/05/20 06:53:48;;;;;;;6.32;1.70;;;;;;;16.22;42.12;101301.13;5028350;28;20500;-79
2021/05/20 06:56:18;;;;;;;6.35;1.90;;;;;;;16.87;41.04;101297.13;5005774;28;20083;-80
2021/05/20 07:01:28;;;;;;;8.18;2.08;;;;;;;16.87;40.90;101307.97;5017279;28;20541;-80
2021/05/20 07:03:53;;;;;;;4.68;1.70;;;;;;;17.24;40.53;101304.88;5027221;28;20104;-80
2021/05/20 07:06:19;;;;;;;6.65;2.03;;;;;;;16.96;41.01;101302.41;5030358;28;20121;-79
2021/05/20 07:08:44;;;;;;;8.18;2.42;;;;;;;17.07;41.09;101303.13;5021973;28;20021;-80
2021/05/20 07:11:09;;;;;;;7.38;2.55;;;;;;;16.85;41.45;101299.97;5030711;28;20356;-80
2021/05/20 07:13:35;;;;;;;6.90;1.80;;;;;;;16.77;41.69;101319.81;5029569;28;20033;-80
2021/05/20 07:16:00;;;;;;;7.40;2.28;;;;;;;16.04;43.23;101319.31;5012084;28;20025;-80
2021/05/20 07:18:26;;;;;;;5.80;2.13;;;;;;;16.38;43.47;101307.69;5012033;28;20022;-80
2021/05/20 07:20:51;;;;;;;5.65;2.08;;;;;;;16.44;42.53;101307.91;5029875;28;20049;-80
2021/05/20 07:23:18;;;;;;;6.78;2.08;;;;;;;16.69;41.79;101310.75;5030064;28;20029;-80
2021/05/20 07:25:44;;;;;;;5.57;1.70;;;;;;;16.63;41.00;101305.97;5012205;28;20034;-80
2021/05/20 07:28:11;;;;;;;4.90;1.77;;;;;;;17.07;40.46;101297.69;5011551;28;20029;-80
2021/05/20 07:30:39;;;;;;;6.88;1.92;;;;;;;17.20;40.24;101303.50;5030788;28;20515;-81
2021/05/20 07:33:05;;;;;;;3.40;2.15;;;;;;;16.83;40.11;101299.28;5011494;28;20025;-80
2021/05/20 07:35:31;;;;;;;8.48;2.67;;;;;;;17.12;39.67;101311.66;5029359;28;20480;-80
2021/05/20 07:37:56;;;;;;;4.65;2.00;;;;;;;17.05;38.74;101307.84;5029151;28;20037;-81
2021/05/20 07:40:22;;;;;;;6.10;2.25;;;;;;;17.52;38.35;101302.75;5010616;28;20041;-80
2021/05/20 07:42:47;;;;;;;4.43;1.70;;;;;;;17.55;38.00;101301.56;5028213;28;20052;-80
2021/05/20 07:45:15;;;;;;;5.07;1.60;;;;;;;16.98;38.52;101304.94;5008905;28;20033;-81
2021/05/20 07:47:42;;;;;;;3.78;2.28;;;;;;;17.09;39.10;101304.66;5027073;28;20040;-81
2021/05/20 07:50:08;;;;;;;6.30;1.67;;;;;;;16.82;40.08;101304.91;5026785;28;20067;-80
2021/05/20 07:52:33;;;;;;;5.90;2.10;;;;;;;17.18;39.84;101308.28;5008474;28;20021;-81
2021/05/20 07:54:59;;;;;;;6.22;2.05;;;;;;;17.55;39.41;101310.56;5026397;28;20025;-80
2021/05/20 07:57:25;;;;;;;9.73;2.50;;;;;;;17.51;39.52;101316.47;5025277;28;20477;-80
2021/05/20 07:59:52;;;;;;;6.53;2.10;;;;;;;17.63;38.72;101315.16;5007483;28;20029;-80
2021/05/20 08:02:30;;;;;;;5.78;1.48;;;;;;;17.79;38.56;101320.66;5007664;28;20033;-80
2021/05/20 08:05:02;;;;;;;7.70;1.42;;;;;;;18.27;38.67;101321.66;5007556;28;20029;-81
2021/05/20 08:07:34;;;;;;;5.32;1.65;;;;;;;18.09;37.81;101329.16;5008399;28;20068;-80
2021/05/20 08:10:22;;;;;;;;;;;;;;;17.92;38.38;101317.44;5026054;28;20500;-80
2021/05/20 08:12:48;;;;;;;3.40;1.63;;;;;;;18.22;38.34;101321.34;5025742;28;19917;-81
2021/05/20 08:15:15;;;;;;;5.00;1.80;;;;;;;18.06;38.46;101322.19;5006540;28;20358;-82
2021/05/20 08:17:41;;;;;;;6.50;2.10;;;;;;;17.85;39.03;101311.81;5025228;28;20037;-82
2021/05/20 08:20:07;;;;;;;6.13;1.90;;;;;;;17.63;39.39;101317.88;5014074;28;20025;-82
2021/05/20 08:22:32;;;;;;;6.15;1.90;;;;;;;17.41;40.21;101322.06;5032513;28;20492;-82
2021/05/20 08:24:58;;;;;;;8.70;2.38;;;;;;;16.86;40.61;101319.84;5014584;28;20028;-82
2021/05/20 08:27:23;;;;;;;9.32;2.47;;;;;;;17.62;39.89;101321.63;5012906;28;20037;-83
2021/05/20 08:29:49;;;;;;;4.63;1.60;;;;;;;17.26;39.96;101334.59;5020654;28;20041;-83
2021/05/20 08:32:15;;;;;;;3.38;1.45;;;;;;;17.30;39.67;101315.09;5015497;28;20087;-83
2021/05/20 08:34:40;;;;;;;7.00;2.42;;;;;;;16.99;39.76;101310.25;5012986;28;20025;-83
2021/05/20 08:37:06;;;;;;;7.10;2.13;;;;;;;17.46;39.94;101317.84;5030850;28;20022;-82
2021/05/20 08:39:31;;;;;;;7.43;2.05;;;;;;;17.80;38.82;101303.31;5015374;28;20022;-82
2021/05/20 08:41:58;;;;;;;6.47;1.60;;;;;;;18.00;38.37;101313.84;5033158;28;20064;-83
2021/05/20 08:44:28;;;;;;;8.27;1.80;;;;;;;18.02;37.85;101309.09;5013991;28;20037;-81
2021/05/20 08:46:59;;;;;;;6.00;1.77;;;;;;;18.44;37.87;101302.56;5030894;28;20036;-80
2021/05/20 08:49:25;;;;;;;;;;;;;;;18.31;37.78;101297.66;5013109;28;20115;-80
2021/05/20 08:51:52;;;;;;;3.70;1.63;;;;;;;18.50;38.06;101318.22;5029324;28;19920;-82
2021/05/20 08:54:19;;;;;;;6.55;1.70;;;;;;;17.96;37.76;101315.22;5012314;28;20037;-80
2021/05/20 08:56:46;;;;;;;5.97;1.83;;;;;;;17.76;38.51;101306.50;5012223;28;20021;-80
2021/05/20 08:59:13;;;;;;;9.13;2.45;;;;;;;17.82;38.98;101303.16;5030260;28;20095;-80
2021/05/20 09:01:43;;;;;;;5.85;1.83;;;;;;;18.16;38.07;101311.13;5029047;28;20021;-80
2021/05/20 09:04:11;;;;;;;8.70;2.10;;;;;;;18.46;37.98;101306.00;5010831;28;20135;-79
2021/05/20 09:06:44;;;;;;;3.75;1.35;;;;;;;18.61;37.82;101320.59;5029155;28;20036;-79
2021/05/20 09:09:35;;;;;;;8.13;2.28;;;;;;;18.32;37.90;101299.38;5030455;28;20127;-80
2021/05/20 09:11:57;;;;;;;5.43;1.83;;;;;;;18.87;37.36;101293.09;5033412;28;20033;-80
2021/05/20 09:14:34;;;;;;;4.68;1.63;;;;;;;18.98;37.78;101289.16;5013573;28;20033;-80
2021/05/20 09:17:15;;;;;;;3.72;2.15;;;;;;;18.72;38.33;101295.69;5026326;28;20035;-78
2021/05/20 09:19:42;;;;;;;5.03;1.77;;;;;;;18.41;38.21;101300.19;5034341;28;20553;-77
2021/05/20 09:22:16;;;;;;;4.60;1.55;;;;;;;18.52;38.37;101297.97;5025855;28;20034;-77
2021/05/20 09:24:49;;;;;;;7.13;2.03;;;;;;;19.08;37.40;101300.69;5019345;28;20045;-77
2021/05/20 09:27:36;;;;;;;5.55;1.70;;;;;;;18.75;37.82;101311.72;5022172;28;20591;-77
2021/05/20 09:30:21;;;;;;;5.68;1.95;;;;;;;18.65;38.26;101302.03;5009880;28;20482;-78
2021/05/20 09:32:49;;;;;;;5.70;1.73;;;;;;;18.65;38.37;101299.28;5018505;28;20516;-77
2021/05/20 09:35:16;;;;;;;4.75;1.95;;;;;;;18.88;37.55;101305.69;5030080;28;20036;-79
2021/05/20 09:38:06;;;;;;;6.57;2.33;;;;;;;19.27;37.13;101296.66;5033593;28;20056;-79
2021/05/20 09:40:37;;;;;;;6.13;1.70;;;;;;;18.94;37.17;101296.81;5005363;28;20107;-79
2021/05/20 09:43:23;;;;;;;7.47;1.95;;;;;;;19.80;36.08;101302.28;5014415;28;20100;-79
2021/05/20 09:45:51;;;;;;;7.45;1.88;;;;;;;19.48;36.26;101306.94;5030715;28;20044;-79
2021/05/20 09:48:17;;;;;;;4.97;1.63;;;;;;;19.63;35.97;101305.13;5014712;28;20033;-79
2021/05/20 09:50:49;;;;;;;5.43;1.50;;;;;;;20.18;34.82;101301.28;5014176;28;20022;-80
2021/05/20 09:53:19;;;;;;;5.53;1.60;;;;;;;19.27;34.97;101310.28;5031440;28;20037;-79
2021/05/20 09:55:53;;;;;;;6.30;1.35;;;;;;;19.48;34.81;101304.19;5021752;28;20042;-79
2021/05/20 09:58:21;;;;;;;3.58;1.50;;;;;;;19.41;34.95;101308.69;5025965;28;20044;-78
2021/05/20 10:00:47;;;;;;;2.97;1.20;;;;;;;19.54;34.05;101300.75;5022637;28;20534;-79
2021/05/20 10:03:15;;;;;;;4.00;1.20;;;;;;;19.54;34.69;101308.94;5029953;28;20498;-79
2021/05/20 10:05:45;;;;;;;2.72;1.40;;;;;;;19.20;34.96;101299.25;5029614;28;20060;-79
2021/05/20 10:08:16;;;;;;;3.50;1.30;;;;;;;19.54;34.99;101299.91;5033249;28;20029;-79
2021/05/20 10:10:51;;;;;;;3.42;1.40;;;;;;;19.29;35.42;101297.34;5014955;28;20037;-79
2021/05/20 10:13:19;;;;;;;5.90;1.65;;;;;;;19.36;36.75;101298.31;5030898;28;20033;-79
2021/05/20 10:15:46;;;;;;;4.07;1.35;;;;;;;19.74;35.58;101288.38;5038437;28;20029;-80
2021/05/20 10:18:15;;;;;;;6.30;1.75;;;;;;;19.44;35.41;101291.97;5013015;28;20037;-80
2021/05/20 10:20:42;;;;;;;4.10;1.50;;;;;;;19.23;34.84;101295.31;5030062;28;20017;-79
2021/05/20 10:23:16;;;;;;;4.03;1.60;;;;;;;19.09;34.97;101294.19;5029517;28;20033;-79
2021/05/20 10:25:42;;;;;;;4.38;1.45;;;;;;;18.86;36.06;101282.41;5026556;28;20059;-79
2021/05/20 10:28:10;;;;;;;3.47;1.20;;;;;;;18.82;35.74;101279.16;5011000;28;20032;-79
2021/05/20 10:30:38;;;;;;;4.90;1.50;;;;;;;18.93;35.28;101297.84;5027466;28;20199;-79
2021/05/20 10:33:05;;;;;;;2.60;1.20;;;;;;;18.81;36.37;101272.84;5026690;28;20017;-80
2021/05/20 10:35:51;;;;;;;4.95;1.50;;;;;;;19.16;36.25;101277.97;5026258;28;20098;-78
2021/05/20 10:38:28;;;;;;;8.13;1.60;;;;;;;19.22;34.17;101291.75;5022732;28;20035;-79
2021/05/20 10:41:08;;;;;;;6.55;1.20;;;;;;;18.81;34.37;101302.81;5027643;28;20504;-79
2021/05/20 10:43:33;;;;;;;2.53;1.08;;;;;;;18.49;35.17;101295.59;5009910;28;20056;-78
2021/05/20 10:46:07;;;;;;;3.63;1.52;;;;;;;18.75;35.78;101297.25;5027549;28;20033;-79
2021/05/20 10:48:35;;;;;;;4.25;1.02;;;;;;;18.45;34.73;101296.94;5025352;28;20378;-79
2021/05/20 10:51:03;;;;;;;3.83;1.30;;;;;;;18.26;35.43;101295.44;5005978;28;20492;-79
2021/05/20 10:53:38;;;;;;;4.32;1.30;;;;;;;18.28;36.91;101282.53;5009521;28;20057;-79
2021/05/20 10:56:08;;;;;;;5.47;2.00;;;;;;;18.23;36.04;101290.34;5009352;28;20033;-78
2021/05/20 10:58:37;;;;;;;5.07;1.20;;;;;;;18.38;35.71;101285.91;5027702;28;20044;-78
2021/05/20 11:01:31;;;;;;;2.40;1.08;;;;;;;18.52;35.81;101280.78;5010305;28;20039;-79
2021/05/20 11:04:07;;;;;;;2.00;1.10;;;;;;;18.11;36.28;101273.53;5001510;28;20037;-79
2021/05/20 11:06:35;;;;;;;2.63;1.75;;;;;;;18.73;35.62;101278.34;5004624;28;20036;-79
2021/05/20 11:09:02;;;;;;;4.93;1.42;;;;;;;18.87;34.55;101271.31;5017947;28;20061;-79
2021/05/20 11:11:31;;;;;;;1.65;0.93;;;;;;;19.23;34.22;101276.25;5027385;28;20040;-79
2021/05/20 11:14:00;;;;;;;3.28;1.00;;;;;;;18.85;35.32;101281.53;5016945;28;20065;-79
2021/05/20 11:16:33;;;;;;;4.18;1.40;;;;;;;18.56;36.20;101269.34;5015999;28;20401;-79
2021/05/20 11:19:23;;;;;;;2.20;1.10;;;;;;;18.30;36.51;101271.44;5034225;28;20038;-78
2021/05/20 11:22:04;;;;;;;2.08;1.30;;;;;;;18.53;36.45;101263.41;5014981;28;20695;-79
2021/05/20 11:24:34;;;;;;;5.50;1.25;;;;;;;18.44;36.80;101264.44;5017747;28;20060;-79
2021/05/20 11:27:04;;;;;;;1.60;1.38;;;;;;;18.19;36.96;101271.81;5019164;28;20038;-79